Time;durP1;ratioP1;P1;durP2;ratioP2;P2;SDS_P1;SDS_P2;PMS_P1;PMS_P2;Temp;Humidity;BMP_temperature;BMP_pressure;BME280_temperature;BME280_humidity;BME280_pressure;Samples;Min_cycle;Max_cycle;Signal;HPM_P1;HPM_P2
2022/12/31 00:01:17;;;;;;;8.68;5.43;;;11.60;99.90;;;;;;5013357;28;20594;-74
2022/12/31 00:03:44;;;;;;;9.43;5.78;;;11.60;99.90;;;;;;5017806;28;20037;-74
2022/12/31 00:06:23;;;;;;;8.90;5.32;;;11.50;99.90;;;;;;5001470;28;20041;-74
2022/12/31 00:08:49;;;;;;;8.57;5.55;;;11.50;99.90;;;;;;5024364;23;20077;-80
2022/12/31 00:11:16;;;;;;;9.40;5.25;;;11.50;99.90;;;;;;4991086;28;20046;-79
2022/12/31 00:13:42;;;;;;;10.45;5.05;;;11.50;99.90;;;;;;5011614;28;20045;-79
2022/12/31 00:16:12;;;;;;;7.85;4.80;;;11.50;99.90;;;;;;4998416;28;20048;-79
2022/12/31 00:18:49;;;;;;;8.63;5.10;;;11.50;99.90;;;;;;4977258;28;20129;-79
2022/12/31 00:21:16;;;;;;;8.77;4.72;;;11.50;99.90;;;;;;4967151;28;20035;-79
2022/12/31 00:23:42;;;;;;;7.30;4.45;;;11.40;99.90;;;;;;4976573;28;20074;-80
2022/12/31 00:26:13;;;;;;;10.45;4.70;;;11.40;99.90;;;;;;4980189;28;20068;-79
2022/12/31 00:28:40;;;;;;;8.57;4.63;;;11.40;99.90;;;;;;4983946;28;20104;-79
2022/12/31 00:31:14;;;;;;;9.40;5.03;;;11.40;99.90;;;;;;4974056;28;20058;-79
2022/12/31 00:33:40;;;;;;;6.10;4.63;;;11.50;99.90;;;;;;4992415;28;20146;-79
2022/12/31 00:36:15;;;;;;;9.38;4.68;;;11.40;99.90;;;;;;4985168;28;20034;-79
2022/12/31 00:38:43;;;;;;;7.75;4.72;;;11.50;99.90;;;;;;4982348;28;20053;-79
2022/12/31 00:41:09;;;;;;;8.02;4.63;;;11.50;99.90;;;;;;4953721;28;20456;-79
2022/12/31 00:43:35;;;;;;;8.77;4.90;;;11.40;99.90;;;;;;4976295;28;20035;-79
2022/12/31 00:46:02;;;;;;;8.70;4.53;;;11.40;99.90;;;;;;4945316;28;20089;-79
2022/12/31 00:48:27;;;;;;;7.05;5.10;;;11.50;99.90;;;;;;4961431;28;20035;-79
2022/12/31 00:50:55;;;;;;;10.05;4.88;;;11.40;99.90;;;;;;4957849;28;20050;-80
2022/12/31 00:53:21;;;;;;;8.65;4.35;;;11.50;99.90;;;;;;4973580;28;20045;-79
2022/12/31 00:55:47;;;;;;;9.02;4.45;;;11.50;99.90;;;;;;4978993;28;20053;-79
2022/12/31 00:58:13;;;;;;;6.72;4.45;;;11.50;99.90;;;;;;4998825;28;20428;-79
2022/12/31 01:00:39;;;;;;;8.88;4.40;;;11.40;99.90;;;;;;4974812;28;20034;-79
2022/12/31 01:03:05;;;;;;;8.07;4.65;;;11.40;99.90;;;;;;4988919;28;20046;-79
2022/12/31 01:05:32;;;;;;;6.38;4.07;;;11.40;99.90;;;;;;4965723;28;20396;-79
2022/12/31 01:07:57;;;;;;;8.27;4.28;;;11.40;99.90;;;;;;4963511;28;20039;-79
2022/12/31 01:13:08;;;;;;;5.90;4.25;;;11.40;99.90;;;;;;4969109;28;20529;-79
2022/12/31 01:15:35;;;;;;;6.18;3.90;;;11.40;99.90;;;;;;4973771;28;20042;-79
2022/12/31 01:18:06;;;;;;;7.38;4.35;;;11.30;99.90;;;;;;4977032;28;20038;-79
2022/12/31 01:20:41;;;;;;;6.38;3.88;;;11.30;99.90;;;;;;4954424;28;20470;-79
2022/12/31 01:23:08;;;;;;;5.47;4.10;;;11.30;99.90;;;;;;4960991;28;20046;-79
2022/12/31 01:25:38;;;;;;;4.90;3.90;;;11.30;99.90;;;;;;4978571;28;20042;-79
2022/12/31 01:28:05;;;;;;;8.65;4.57;;;11.30;99.90;;;;;;4957753;28;20042;-79
2022/12/31 01:30:31;;;;;;;11.65;4.80;;;11.30;99.90;;;;;;4961726;28;20041;-79
2022/12/31 01:32:56;;;;;;;9.80;4.10;;;11.30;99.90;;;;;;4976514;28;20480;-79
2022/12/31 01:35:22;;;;;;;6.05;4.03;;;11.30;99.90;;;;;;4979026;28;20034;-79
2022/12/31 01:37:48;;;;;;;8.63;4.40;;;11.20;99.90;;;;;;4954974;28;20045;-79
2022/12/31 01:40:16;;;;;;;7.88;4.45;;;11.20;99.90;;;;;;4984992;28;20046;-79
2022/12/31 01:42:41;;;;;;;7.68;3.83;;;11.20;99.90;;;;;;4984726;28;20031;-79
2022/12/31 01:45:12;;;;;;;6.05;3.90;;;11.20;99.90;;;;;;4973066;28;20038;-79
2022/12/31 01:47:49;;;;;;;7.35;4.10;;;11.10;99.90;;;;;;4950027;28;20226;-79
2022/12/31 01:50:19;;;;;;;7.00;3.53;;;11.10;99.90;;;;;;4971610;28;20563;-79
2022/12/31 01:52:49;;;;;;;7.38;3.42;;;11.10;99.90;;;;;;4987422;28;20038;-79
2022/12/31 01:55:26;;;;;;;6.10;2.85;;;11.10;99.90;;;;;;4980718;28;20470;-79
2022/12/31 01:57:56;;;;;;;5.32;2.80;;;11.10;99.90;;;;;;4971833;28;20530;-79
2022/12/31 02:00:22;;;;;;;4.93;2.80;;;11.00;99.90;;;;;;4975917;28;20045;-79
2022/12/31 02:02:48;;;;;;;5.00;2.30;;;11.00;99.90;;;;;;4982729;28;20035;-78
2022/12/31 02:05:36;;;;;;;6.07;2.08;;;11.00;99.90;;;;;;4973712;28;20030;-78
2022/12/31 02:08:02;;;;;;;4.95;1.70;;;10.90;99.90;;;;;;4984984;28;20051;-78
2022/12/31 02:10:28;;;;;;;6.32;1.60;;;10.90;99.90;;;;;;4956519;28;20396;-78
2022/12/31 02:12:54;;;;;;;3.70;1.55;;;10.90;99.90;;;;;;4962755;28;20043;-78
2022/12/31 02:15:41;;;;;;;3.13;1.55;;;10.90;99.90;;;;;;4968685;28;20042;-78
2022/12/31 02:18:25;;;;;;;2.90;1.38;;;10.80;99.90;;;;;;4967724;28;20034;-78
2022/12/31 02:21:06;;;;;;;4.32;1.60;;;10.80;99.90;;;;;;4972927;28;20035;-78
2022/12/31 02:23:53;;;;;;;4.47;1.70;;;10.80;99.90;;;;;;4979878;28;20035;-78
2022/12/31 02:26:48;;;;;;;2.80;1.77;;;10.70;99.90;;;;;;4972538;28;20374;-78
2022/12/31 02:29:38;;;;;;;3.90;1.95;;;10.70;99.90;;;;;;4959373;28;20045;-78
2022/12/31 02:32:16;;;;;;;3.67;2.00;;;10.70;99.90;;;;;;4974688;28;20038;-78
2022/12/31 02:35:27;;;;;;;3.00;1.92;;;10.70;99.90;;;;;;4970831;28;20408;-78
2022/12/31 02:38:00;;;;;;;3.20;2.10;;;10.70;99.90;;;;;;4932013;28;20051;-78
2022/12/31 02:40:26;;;;;;;6.63;2.40;;;10.70;99.90;;;;;;4952132;28;20217;-78
2022/12/31 02:42:51;;;;;;;3.83;2.35;;;10.70;99.90;;;;;;4965148;28;20235;-78
2022/12/31 02:45:25;;;;;;;6.97;2.28;;;10.60;99.90;;;;;;4960082;28;20507;-78
2022/12/31 02:48:11;;;;;;;4.70;2.70;;;10.60;99.90;;;;;;4979766;28;20057;-78
2022/12/31 02:50:37;;;;;;;5.28;2.58;;;10.60;99.90;;;;;;4972617;28;20081;-78
2022/12/31 02:53:24;;;;;;;7.93;3.05;;;10.60;99.90;;;;;;4982773;28;20074;-78
2022/12/31 02:56:19;;;;;;;4.47;3.00;;;10.60;99.90;;;;;;4969922;28;20099;-77
2022/12/31 03:04:32;;;;;;;8.27;3.70;;;10.60;99.90;;;;;;4968209;28;20152;-77
2022/12/31 03:07:12;;;;;;;7.60;3.50;;;10.50;99.90;;;;;;4966727;28;20042;-77
2022/12/31 03:09:38;;;;;;;6.38;4.07;;;10.60;99.90;;;;;;4973202;28;20046;-78
2022/12/31 03:14:51;;;;;;;9.23;4.18;;;10.60;99.90;;;;;;4974053;28;20054;-78
2022/12/31 03:17:17;;;;;;;12.35;4.75;;;10.60;99.90;;;;;;4966744;28;20039;-78
2022/12/31 03:22:26;;;;;;;7.60;4.47;;;10.60;99.90;;;;;;4977530;28;20097;-78
2022/12/31 03:27:41;;;;;;;11.82;5.65;;;10.60;99.90;;;;;;4977650;28;20045;-78
2022/12/31 03:30:07;;;;;;;9.38;5.10;;;10.60;99.90;;;;;;4974089;28;20038;-78
2022/12/31 03:32:33;;;;;;;8.30;4.50;;;10.60;99.90;;;;;;4982759;28;20034;-78
2022/12/31 03:34:58;;;;;;;10.27;4.78;;;10.60;99.90;;;;;;4971209;28;20518;-78
2022/12/31 03:37:24;;;;;;;9.27;4.80;;;10.60;99.90;;;;;;4975741;28;20064;-77
2022/12/31 03:39:49;;;;;;;10.25;4.90;;;10.70;99.90;;;;;;4965750;28;20202;-78
2022/12/31 03:42:15;;;;;;;9.15;5.00;;;10.70;99.90;;;;;;4966799;28;20042;-78
2022/12/31 03:44:40;;;;;;;9.38;5.10;;;10.70;99.90;;;;;;4958076;28;20061;-77
2022/12/31 03:47:06;;;;;;;8.50;4.43;;;10.70;99.90;;;;;;4966227;28;20113;-77
2022/12/31 03:49:32;;;;;;;8.73;4.53;;;10.70;99.90;;;;;;4990180;28;20038;-77
2022/12/31 03:51:57;;;;;;;6.32;3.50;;;10.70;99.90;;;;;;4972024;28;20039;-77
2022/12/31 03:54:23;;;;;;;6.78;3.85;;;10.70;99.90;;;;;;4952561;28;20038;-78
2022/12/31 03:56:48;;;;;;;8.75;3.75;;;10.70;99.90;;;;;;4957784;28;20054;-78
2022/12/31 03:59:14;;;;;;;10.13;3.75;;;10.80;99.90;;;;;;4974495;28;20125;-78
2022/12/31 04:01:40;;;;;;;8.50;2.90;;;10.80;99.90;;;;;;4982588;28;20109;-78
2022/12/31 04:04:05;;;;;;;5.68;2.80;;;10.70;99.90;;;;;;4980664;28;20046;-78
2022/12/31 04:06:31;;;;;;;7.03;2.90;;;10.80;99.90;;;;;;4972797;28;20084;-78
2022/12/31 04:08:56;;;;;;;6.95;3.13;;;10.70;99.90;;;;;;4974011;28;20065;-77
2022/12/31 04:11:23;;;;;;;8.00;2.45;;;10.70;99.90;;;;;;4982053;28;20656;-77
2022/12/31 04:13:48;;;;;;;5.63;2.50;;;10.70;99.90;;;;;;4941057;28;20153;-77
2022/12/31 04:16:14;;;;;;;5.93;2.05;;;10.60;99.90;;;;;;4955087;28;20404;-77
2022/12/31 04:18:39;;;;;;;4.15;2.00;;;10.70;99.90;;;;;;4966849;28;20133;-77
2022/12/31 04:21:05;;;;;;;6.00;2.20;;;10.70;99.90;;;;;;4968950;28;20094;-77
2022/12/31 04:23:31;;;;;;;7.65;2.58;;;10.60;99.90;;;;;;4966789;28;20495;-78
2022/12/31 04:25:56;;;;;;;7.63;2.75;;;10.60;99.90;;;;;;4994502;28;20041;-77
2022/12/31 04:28:22;;;;;;;6.38;2.50;;;10.60;99.90;;;;;;4977899;28;20038;-77
2022/12/31 04:30:47;;;;;;;7.00;2.35;;;10.60;99.90;;;;;;4975930;28;20041;-78
2022/12/31 04:33:13;;;;;;;6.97;2.20;;;10.60;99.90;;;;;;4962067;28;20448;-78
2022/12/31 04:35:38;;;;;;;6.60;2.78;;;10.60;99.90;;;;;;4977726;28;20053;-78
2022/12/31 04:38:04;;;;;;;8.20;3.00;;;10.60;99.90;;;;;;4977575;28;20046;-78
2022/12/31 04:40:30;;;;;;;11.23;3.00;;;10.60;99.90;;;;;;4980295;28;20477;-77
2022/12/31 04:42:56;;;;;;;6.35;2.70;;;10.60;99.90;;;;;;4963269;28;20054;-78
2022/12/31 04:45:21;;;;;;;9.40;3.00;;;10.60;99.90;;;;;;4978068;28;20142;-78
2022/12/31 04:47:47;;;;;;;6.32;2.63;;;10.60;99.90;;;;;;4961106;28;20039;-78
2022/12/31 04:50:12;;;;;;;4.82;3.10;;;10.50;99.90;;;;;;4975119;28;20053;-78
2022/12/31 04:52:38;;;;;;;7.20;3.50;;;10.50;99.90;;;;;;4974250;28;20137;-78
2022/12/31 04:55:04;;;;;;;8.48;3.17;;;10.50;99.90;;;;;;4958307;28;20042;-78
2022/12/31 04:57:30;;;;;;;7.55;3.42;;;10.60;99.90;;;;;;4955976;28;20046;-78
2022/12/31 04:59:55;;;;;;;8.05;3.58;;;10.60;99.90;;;;;;4976627;28;20041;-78
2022/12/31 05:02:21;;;;;;;10.77;3.80;;;10.60;99.90;;;;;;4961409;28;20077;-78
2022/12/31 05:04:46;;;;;;;5.18;3.38;;;10.50;99.90;;;;;;4961315;28;20039;-78
2022/12/31 05:07:12;;;;;;;8.40;4.55;;;10.60;99.90;;;;;;4961102;28;20042;-78
2022/12/31 05:09:37;;;;;;;8.60;4.80;;;10.50;99.90;;;;;;4979774;28;20531;-78
2022/12/31 05:12:03;;;;;;;9.38;5.82;;;10.50;99.90;;;;;;4975176;28;20113;-78
2022/12/31 05:14:29;;;;;;;9.27;6.55;;;10.50;99.90;;;;;;4977170;28;20081;-78
2022/12/31 05:16:58;;;;;;;10.20;6.00;;;10.50;99.90;;;;;;4960952;28;20042;-78
2022/12/31 05:19:23;;;;;;;8.50;5.55;;;10.50;99.90;;;;;;4978968;28;20456;-78
2022/12/31 05:22:27;;;;;;;9.15;6.05;;;10.50;99.90;;;;;;4979042;28;20046;-78
2022/12/31 05:24:35;;;;;;;9.85;5.97;;;10.60;99.90;;;;;;4972457;28;20137;-78
2022/12/31 05:27:01;;;;;;;12.25;7.00;;;10.60;99.90;;;;;;4976906;28;20069;-78
2022/12/31 05:29:26;;;;;;;6.72;5.55;;;10.60;99.90;;;;;;4960231;28;20034;-78
2022/12/31 05:31:52;;;;;;;13.10;6.32;;;10.60;99.90;;;;;;4967018;28;20089;-78
2022/12/31 05:34:17;;;;;;;9.88;6.20;;;10.60;99.90;;;;;;4962134;28;20137;-78
2022/12/31 05:36:43;;;;;;;8.30;5.55;;;10.60;99.90;;;;;;4942455;28;20117;-77
2022/12/31 05:39:08;;;;;;;8.60;5.50;;;10.60;99.90;;;;;;4975069;28;20034;-78
2022/12/31 05:41:34;;;;;;;8.27;5.18;;;10.60;99.90;;;;;;4953711;28;20043;-78
2022/12/31 05:44:00;;;;;;;11.23;5.57;;;10.60;99.90;;;;;;4941497;28;20039;-78
2022/12/31 05:46:25;;;;;;;8.52;4.50;;;10.60;99.90;;;;;;4957617;28;20039;-78
2022/12/31 05:48:51;;;;;;;6.25;4.20;;;10.50;99.90;;;;;;4973688;28;20073;-78
2022/12/31 05:51:16;;;;;;;5.70;4.35;;;10.60;99.90;;;;;;4971139;28;20034;-78
2022/12/31 05:53:42;;;;;;;6.32;3.95;;;10.50;99.90;;;;;;4941262;28;20477;-78
2022/12/31 05:56:07;;;;;;;5.15;3.63;;;10.50;99.90;;;;;;4957223;28;20035;-78
2022/12/31 05:58:33;;;;;;;8.30;3.90;;;10.50;99.90;;;;;;4942282;28;20460;-78
2022/12/31 06:00:58;;;;;;;5.93;3.40;;;10.50;99.90;;;;;;4959060;28;20093;-78
2022/12/31 06:03:24;;;;;;;7.32;3.88;;;10.50;99.90;;;;;;4979926;28;20489;-78
2022/12/31 06:05:50;;;;;;;7.05;3.28;;;10.50;99.90;;;;;;4960158;28;20034;-78
2022/12/31 06:08:23;;;;;;;7.22;3.40;;;10.50;99.90;;;;;;4993742;23;20022;-76
2022/12/31 06:10:49;;;;;;;7.03;3.33;;;10.50;99.90;;;;;;4972821;28;20400;-77
2022/12/31 06:13:16;;;;;;;6.95;3.60;;;10.50;99.90;;;;;;4994386;28;20029;-77
2022/12/31 06:15:42;;;;;;;6.63;3.28;;;10.50;99.90;;;;;;4994453;28;20046;-77
2022/12/31 06:18:10;;;;;;;6.20;3.22;;;10.50;99.90;;;;;;4992304;28;20107;-77
2022/12/31 06:20:37;;;;;;;7.35;3.40;;;10.50;99.90;;;;;;4950836;28;20088;-77
2022/12/31 06:23:03;;;;;;;5.50;3.05;;;10.50;99.90;;;;;;4941420;28;20412;-77
2022/12/31 06:25:29;;;;;;;4.85;2.83;;;10.50;99.90;;;;;;4955311;28;20096;-76
2022/12/31 06:28:00;;;;;;;8.95;4.20;;;10.50;99.90;;;;;;4959337;28;20073;-76
2022/12/31 06:30:32;;;;;;;8.73;4.10;;;10.40;99.90;;;;;;4980698;28;20344;-76
2022/12/31 06:33:00;;;;;;;6.57;3.78;;;10.40;99.90;;;;;;4976349;28;20110;-77
2022/12/31 06:35:26;;;;;;;11.88;4.63;;;10.50;99.90;;;;;;4976209;28;20416;-76
2022/12/31 06:37:52;;;;;;;7.40;3.90;;;10.50;99.90;;;;;;4976149;28;20049;-76
2022/12/31 06:40:17;;;;;;;9.18;4.35;;;10.50;99.90;;;;;;4966977;28;20520;-76
2022/12/31 06:42:43;;;;;;;7.88;4.70;;;10.40;99.90;;;;;;4958568;28;20535;-76
2022/12/31 06:45:12;;;;;;;9.27;4.88;;;10.50;99.90;;;;;;4959133;28;20050;-77
2022/12/31 06:47:38;;;;;;;10.75;5.18;;;10.40;99.90;;;;;;4959141;28;20046;-76
2022/12/31 06:50:05;;;;;;;7.82;5.25;;;10.50;99.90;;;;;;4959167;28;20471;-76
2022/12/31 06:52:36;;;;;;;10.02;5.32;;;10.40;99.90;;;;;;4973375;28;20034;-76
2022/12/31 06:55:05;;;;;;;8.73;4.78;;;10.40;99.90;;;;;;4965485;28;20049;-76
2022/12/31 06:57:31;;;;;;;11.48;5.45;;;10.50;99.90;;;;;;4975430;28;20042;-76
2022/12/31 06:59:57;;;;;;;12.52;5.78;;;10.50;99.90;;;;;;4959375;28;20394;-76
2022/12/31 07:02:52;;;;;;;10.07;5.32;;;10.50;99.90;;;;;;4959070;28;20034;-76
2022/12/31 07:05:45;;;;;;;15.95;5.25;;;10.50;99.90;;;;;;4975205;28;20477;-76
2022/12/31 07:08:51;;;;;;;10.98;5.57;;;10.50;99.90;;;;;;4974792;28;20126;-76
2022/12/31 07:11:41;;;;;;;12.20;5.13;;;10.50;99.90;;;;;;4967747;28;20168;-77
2022/12/31 07:14:24;;;;;;;9.32;5.10;;;10.50;99.90;;;;;;4974981;28;20085;-77
2022/12/31 07:17:28;;;;;;;12.68;5.50;;;10.50;99.90;;;;;;4975177;28;20038;-76
2022/12/31 07:20:04;;;;;;;10.35;5.00;;;10.50;99.90;;;;;;4973990;28;20520;-77
2022/12/31 07:22:33;;;;;;;15.43;5.47;;;10.50;99.90;;;;;;4975232;28;20081;-76
2022/12/31 07:24:59;;;;;;;10.43;5.10;;;10.50;99.90;;;;;;4971973;28;20074;-76
2022/12/31 07:27:53;;;;;;;7.35;4.25;;;10.50;99.90;;;;;;4953787;28;20133;-76
2022/12/31 07:30:33;;;;;;;11.07;5.13;;;10.60;99.90;;;;;;4945900;28;20184;-77
2022/12/31 07:33:29;;;;;;;8.52;4.47;;;10.60;99.90;;;;;;4975278;28;20122;-77
2022/12/31 07:36:13;;;;;;;10.00;5.07;;;10.50;99.90;;;;;;4975174;28;20097;-77
2022/12/31 07:38:42;;;;;;;9.98;5.60;;;10.60;99.90;;;;;;4974752;28;20038;-77
2022/12/31 07:41:42;;;;;;;11.70;5.07;;;10.60;99.90;;;;;;4956546;28;20053;-76
2022/12/31 07:44:30;;;;;;;9.98;5.57;;;10.60;99.90;;;;;;4955878;28;20121;-76
2022/12/31 07:46:59;;;;;;;11.15;6.30;;;10.60;99.90;;;;;;4955228;28;20108;-77
2022/12/31 07:49:28;;;;;;;11.90;5.70;;;10.60;99.90;;;;;;4980262;28;20104;-77
2022/12/31 07:51:57;;;;;;;15.50;6.82;;;10.70;99.90;;;;;;4968389;28;20039;-77
2022/12/31 07:54:23;;;;;;;11.50;5.68;;;10.60;99.90;;;;;;4969491;28;20047;-76
2022/12/31 07:56:49;;;;;;;10.77;5.80;;;10.70;99.90;;;;;;4958202;28;20042;-76
2022/12/31 07:59:36;;;;;;;12.27;6.28;;;10.80;99.90;;;;;;4977215;28;20034;-77
2022/12/31 08:02:32;;;;;;;11.40;5.88;;;10.80;99.90;;;;;;4953806;28;20049;-76
2022/12/31 08:05:25;;;;;;;11.18;6.15;;;10.80;99.90;;;;;;4967645;28;20065;-76
2022/12/31 08:08:15;;;;;;;12.25;5.82;;;10.80;99.90;;;;;;4981314;28;20132;-76
2022/12/31 08:11:02;;;;;;;8.52;5.30;;;10.90;99.90;;;;;;4978942;28;20050;-76
2022/12/31 08:13:28;;;;;;;9.23;5.20;;;11.00;99.90;;;;;;4972032;28;20077;-76
2022/12/31 08:15:54;;;;;;;10.55;5.57;;;11.10;99.90;;;;;;4960069;28;20042;-76
2022/12/31 08:18:20;;;;;;;8.32;5.50;;;11.20;99.90;;;;;;4955529;28;20037;-77
2022/12/31 08:21:05;;;;;;;9.32;5.70;;;11.10;99.90;;;;;;4976505;28;20042;-76
2022/12/31 08:24:24;;;;;;;8.48;5.22;;;11.20;99.90;;;;;;4980117;28;20038;-77
2022/12/31 08:27:05;;;;;;;10.80;6.05;;;11.30;99.90;;;;;;4909035;29;20480;-75
2022/12/31 08:29:42;;;;;;;9.57;5.85;;;11.40;99.90;;;;;;4970857;28;20492;-76
2022/12/31 08:32:08;;;;;;;12.75;5.75;;;11.40;99.90;;;;;;4965626;28;20085;-77
2022/12/31 08:34:57;;;;;;;9.98;5.97;;;11.50;99.90;;;;;;4971742;28;20050;-76
2022/12/31 08:37:43;;;;;;;11.15;6.88;;;11.60;99.90;;;;;;4955338;28;20043;-76
2022/12/31 08:40:22;;;;;;;12.18;7.30;;;11.70;99.90;;;;;;4957716;28;20131;-75
2022/12/31 08:43:20;;;;;;;9.88;6.88;;;11.70;99.90;;;;;;4980745;28;20050;-77
2022/12/31 08:45:52;;;;;;;8.40;6.45;;;11.80;99.90;;;;;;4981420;28;20053;-77
2022/12/31 08:48:38;;;;;;;10.32;7.43;;;11.90;99.90;;;;;;4981792;28;20038;-77
2022/12/31 08:51:04;;;;;;;8.10;6.43;;;11.90;99.90;;;;;;4973551;28;20030;-77
2022/12/31 08:53:30;;;;;;;9.40;6.18;;;12.00;99.90;;;;;;4981178;28;20053;-77
2022/12/31 08:56:49;;;;;;;6.38;5.47;;;12.00;99.90;;;;;;4981000;28;20061;-77
2022/12/31 08:59:37;;;;;;;8.00;5.13;;;12.10;99.90;;;;;;4936639;28;20052;-78
2022/12/31 09:02:06;;;;;;;7.15;4.97;;;12.10;99.90;;;;;;4980860;28;20558;-77
2022/12/31 09:05:05;;;;;;;9.93;5.20;;;12.10;99.90;;;;;;4986056;28;20042;-77
2022/12/31 09:07:41;;;;;;;6.22;4.50;;;12.10;99.90;;;;;;4965230;28;20137;-77
2022/12/31 09:10:18;;;;;;;4.30;3.67;;;12.10;99.90;;;;;;4961110;28;20130;-78
2022/12/31 09:13:05;;;;;;;4.57;3.80;;;12.20;99.90;;;;;;4976252;28;20067;-77
2022/12/31 09:16:10;;;;;;;8.32;3.97;;;12.20;99.90;;;;;;4976775;28;20046;-76
2022/12/31 09:18:43;;;;;;;4.82;3.88;;;12.20;99.90;;;;;;4960061;28;20049;-77
2022/12/31 09:21:14;;;;;;;5.18;3.15;;;12.20;99.90;;;;;;4960991;28;20030;-77
2022/12/31 09:23:40;;;;;;;4.72;2.80;;;12.20;99.90;;;;;;4977054;28;20056;-77
2022/12/31 09:26:33;;;;;;;4.10;2.40;;;12.20;99.90;;;;;;4977265;28;20122;-76
2022/12/31 09:29:30;;;;;;;4.03;2.38;;;12.20;99.90;;;;;;4982434;28;20038;-76
2022/12/31 09:32:16;;;;;;;4.05;2.30;;;12.20;99.90;;;;;;4984293;28;20038;-76
2022/12/31 09:34:56;;;;;;;4.00;2.10;;;12.20;99.90;;;;;;4972697;28;20066;-76
2022/12/31 09:37:46;;;;;;;2.20;1.80;;;12.20;99.90;;;;;;4957610;28;20051;-76
2022/12/31 09:40:48;;;;;;;6.03;1.77;;;12.20;99.90;;;;;;4941830;28;20069;-77
2022/12/31 09:43:42;;;;;;;3.72;2.15;;;12.20;99.90;;;;;;4944235;28;20054;-77
2022/12/31 09:46:27;;;;;;;2.97;1.70;;;12.20;99.90;;;;;;4976539;28;20413;-76
2022/12/31 09:49:09;;;;;;;3.90;1.35;;;12.20;99.90;;;;;;4976675;28;20038;-76
2022/12/31 09:51:48;;;;;;;2.42;1.50;;;12.20;99.90;;;;;;4975927;28;20057;-76
2022/12/31 09:54:39;;;;;;;2.17;1.40;;;12.30;99.90;;;;;;4969179;28;20046;-76
2022/12/31 09:57:34;;;;;;;4.22;1.65;;;12.30;99.90;;;;;;4976435;28;20456;-76
2022/12/31 10:00:19;;;;;;;2.88;1.30;;;12.40;99.90;;;;;;4967449;28;20134;-76
2022/12/31 10:03:14;;;;;;;3.05;1.52;;;12.40;99.90;;;;;;4976489;28;20093;-76
2022/12/31 10:06:18;;;;;;;2.70;1.10;;;12.40;99.90;;;;;;4975617;28;20116;-76
2022/12/31 10:08:50;;;;;;;;;;;12.50;99.90;;;;;;4973054;28;20047;-76
2022/12/31 10:11:26;;;;;;;3.60;1.15;;;12.50;99.90;;;;;;4960733;28;19971;-76
2022/12/31 10:14:04;;;;;;;2.92;1.35;;;12.60;99.90;;;;;;4976688;28;20512;-76
2022/12/31 10:16:38;;;;;;;3.05;1.48;;;12.60;99.90;;;;;;4974410;28;20050;-76
2022/12/31 10:19:35;;;;;;;4.05;1.77;;;12.60;99.90;;;;;;4975705;28;20100;-77
2022/12/31 10:22:23;;;;;;;2.90;1.75;;;12.60;99.90;;;;;;4948826;28;20054;-78
2022/12/31 10:24:52;;;;;;;3.33;1.92;;;12.70;99.90;;;;;;4972354;28;20052;-75
2022/12/31 10:27:44;;;;;;;3.25;2.00;;;12.70;99.90;;;;;;4975393;28;20043;-78
2022/12/31 10:30:17;;;;;;;3.85;2.15;;;12.80;99.90;;;;;;4977209;28;20489;-75
2022/12/31 10:32:55;;;;;;;4.50;2.30;;;12.80;99.90;;;;;;4966785;28;20049;-77
2022/12/31 10:35:42;;;;;;;3.78;2.30;;;12.90;99.90;;;;;;4977687;28;20129;-74
2022/12/31 10:38:29;;;;;;;6.97;3.15;;;12.90;99.90;;;;;;4982584;28;20395;-76
2022/12/31 10:41:32;;;;;;;6.88;2.92;;;12.90;99.90;;;;;;4975030;28;20047;-74
2022/12/31 10:44:08;;;;;;;5.78;2.90;;;13.00;99.90;;;;;;4975499;28;20109;-74
2022/12/31 10:47:12;;;;;;;5.35;2.78;;;13.00;99.90;;;;;;4952082;28;20550;-74
2022/12/31 10:49:43;;;;;;;;;;;13.00;99.90;;;;;;4957850;28;20452;-74
2022/12/31 10:52:30;;;;;;;4.85;2.97;;;13.00;99.90;;;;;;4971230;28;19918;-74
2022/12/31 10:55:08;;;;;;;9.35;5.28;;;13.10;99.90;;;;;;4974099;28;20038;-74
2022/12/31 10:57:45;;;;;;;9.68;7.82;;;13.00;99.90;;;;;;4974353;28;20046;-75
2022/12/31 11:00:22;;;;;;;10.23;7.07;;;13.00;99.90;;;;;;4947123;28;20378;-75
2022/12/31 11:02:57;;;;;;;8.25;6.03;;;13.00;99.90;;;;;;4956853;28;20056;-74
2022/12/31 11:05:29;;;;;;;8.50;5.78;;;13.00;99.90;;;;;;4975249;28;20078;-74
2022/12/31 11:08:19;;;;;;;5.53;3.50;;;13.10;99.90;;;;;;4983791;28;20101;-74
2022/12/31 11:10:59;;;;;;;4.20;2.85;;;13.00;99.90;;;;;;4974475;28;20478;-74
2022/12/31 11:13:49;;;;;;;4.72;2.10;;;13.00;99.90;;;;;;4991261;28;20041;-74
2022/12/31 11:16:22;;;;;;;3.67;2.15;;;13.00;99.90;;;;;;4973598;28;20065;-73
2022/12/31 11:19:17;;;;;;;6.60;3.42;;;13.00;99.90;;;;;;4973595;28;20045;-73
2022/12/31 11:22:10;;;;;;;4.47;3.22;;;13.00;99.90;;;;;;4972033;28;20073;-74
2022/12/31 11:25:04;;;;;;;6.10;3.13;;;13.10;99.90;;;;;;4989031;28;20042;-74
2022/12/31 11:28:00;;;;;;;5.88;2.50;;;13.20;99.90;;;;;;4965077;28;20393;-74
2022/12/31 11:31:09;;;;;;;7.07;2.70;;;13.20;99.90;;;;;;4975518;28;20038;-74
2022/12/31 11:34:02;;;;;;;5.45;2.63;;;13.30;99.90;;;;;;4973256;28;20042;-74
2022/12/31 11:36:46;;;;;;;4.25;3.17;;;13.30;99.90;;;;;;4974639;28;20505;-74
2022/12/31 11:39:31;;;;;;;7.35;2.80;;;13.40;99.90;;;;;;4989894;28;20050;-74
2022/12/31 11:42:19;;;;;;;7.63;2.92;;;13.40;99.90;;;;;;4971831;28;20405;-74
2022/12/31 11:44:54;;;;;;;4.25;2.90;;;13.40;99.90;;;;;;4973895;28;20102;-73
2022/12/31 11:47:41;;;;;;;5.18;3.00;;;13.50;99.90;;;;;;4974673;28;20128;-74
2022/12/31 11:50:27;;;;;;;6.93;4.07;;;13.50;99.90;;;;;;4972925;28;20088;-74
2022/12/31 11:53:11;;;;;;;6.07;4.15;;;13.60;99.90;;;;;;4974443;28;20357;-74
2022/12/31 11:56:07;;;;;;;8.73;5.53;;;13.60;99.90;;;;;;4973891;28;20105;-76
2022/12/31 11:58:33;;;;;;;8.88;5.53;;;13.60;99.90;;;;;;4958588;28;20574;-74
2022/12/31 12:01:09;;;;;;;9.27;4.88;;;13.60;99.90;;;;;;4983840;28;20047;-74
2022/12/31 12:03:42;;;;;;;10.10;6.78;;;13.70;99.90;;;;;;4989497;28;20046;-76
2022/12/31 12:06:15;;;;;;;10.43;7.47;;;13.60;99.90;;;;;;4950708;28;20042;-75
2022/12/31 12:08:43;;;;;;;4.20;3.05;;;13.70;99.90;;;;;;4974699;28;20061;-76
2022/12/31 12:11:25;;;;;;;3.67;2.40;;;13.80;99.90;;;;;;4973720;28;20527;-75
2022/12/31 12:13:51;;;;;;;3.92;2.33;;;13.80;99.90;;;;;;4966283;28;20046;-76
2022/12/31 12:16:20;;;;;;;4.00;2.30;;;13.70;99.90;;;;;;4974951;28;20043;-75
2022/12/31 12:19:03;;;;;;;4.70;2.58;;;13.70;99.90;;;;;;4974616;28;20397;-76
2022/12/31 12:21:34;;;;;;;4.47;2.60;;;13.60;99.90;;;;;;4991236;28;20038;-76
2022/12/31 12:24:04;;;;;;;3.17;2.47;;;13.60;99.90;;;;;;4974407;28;20043;-77
2022/12/31 12:26:38;;;;;;;4.22;2.45;;;13.60;99.90;;;;;;4992024;28;20053;-77
2022/12/31 12:29:09;;;;;;;3.83;1.80;;;13.50;99.90;;;;;;4991559;28;20039;-76
2022/12/31 12:31:36;;;;;;;3.83;2.08;;;13.40;99.90;;;;;;4990800;28;20065;-76
2022/12/31 12:34:03;;;;;;;3.83;1.88;;;13.40;99.90;;;;;;4974743;28;20050;-76
2022/12/31 12:36:28;;;;;;;5.70;2.70;;;13.50;99.90;;;;;;4972880;28;20038;-75
2022/12/31 12:39:03;;;;;;;5.35;3.10;;;13.40;99.90;;;;;;4973794;28;20497;-76
2022/12/31 12:41:29;;;;;;;4.38;3.20;;;13.50;99.90;;;;;;4975010;28;20499;-76
2022/12/31 12:44:06;;;;;;;4.40;2.83;;;13.40;99.90;;;;;;4957879;28;20175;-76
2022/12/31 12:46:45;;;;;;;4.93;4.20;;;13.40;99.90;;;;;;4951653;28;20471;-78
2022/12/31 12:49:21;;;;;;;6.40;4.68;;;13.40;99.90;;;;;;4959915;28;20038;-76
2022/12/31 12:52:01;;;;;;;5.18;3.45;;;13.40;99.90;;;;;;4993736;28;20461;-78
2022/12/31 12:54:54;;;;;;;3.65;2.58;;;13.40;99.90;;;;;;4979043;28;20053;-76
2022/12/31 12:57:39;;;;;;;5.70;2.60;;;13.30;99.90;;;;;;4977121;28;20435;-76
2022/12/31 13:00:33;;;;;;;6.40;2.92;;;13.30;99.90;;;;;;4991950;28;20130;-77
2022/12/31 13:03:14;;;;;;;8.95;3.20;;;13.30;99.90;;;;;;4954818;28;20089;-77
2022/12/31 13:06:25;;;;;;;8.07;3.33;;;13.30;99.90;;;;;;4978388;28;20057;-77
2022/12/31 13:09:33;;;;;;;5.18;2.70;;;13.20;99.90;;;;;;4957937;28;20121;-76
2022/12/31 13:12:52;;;;;;;5.13;3.30;;;13.20;99.90;;;;;;4961103;28;20041;-77
2022/12/31 13:16:08;;;;;;;7.28;4.32;;;13.10;99.90;;;;;;4976065;28;20034;-77
2022/12/31 13:19:20;;;;;;;7.80;4.50;;;13.10;99.90;;;;;;5000796;28;20121;-76
2022/12/31 13:22:31;;;;;;;11.90;5.50;;;13.00;99.90;;;;;;4979855;28;20400;-76
2022/12/31 13:26:08;;;;;;;51.72;40.30;;;13.00;99.90;;;;;;4947860;28;20621;-77
2022/12/31 13:29:09;;;;;;;51.53;39.35;;;13.10;99.90;;;;;;4956305;28;20086;-76
2022/12/31 13:32:10;;;;;;;24.27;19.65;;;13.00;99.90;;;;;;4958907;28;20146;-76
2022/12/31 13:35:04;;;;;;;20.75;15.15;;;13.00;99.90;;;;;;4962259;28;20045;-76
2022/12/31 13:38:09;;;;;;;20.77;17.65;;;13.00;99.90;;;;;;4960514;28;20054;-76
2022/12/31 13:44:19;;;;;;;37.20;33.50;;;13.00;99.90;;;;;;4986801;28;20060;-76
2022/12/31 13:47:45;;;;;;;41.53;37.15;;;13.00;99.90;;;;;;4972804;28;20046;-76
2022/12/31 13:51:13;;;;;;;35.53;31.73;;;13.10;99.90;;;;;;4962135;28;20043;-76
2022/12/31 13:54:08;;;;;;;14.57;8.20;;;13.20;99.90;;;;;;4935579;29;20093;-77